Patapsco — WDB7783 — position and weather

sailwx.info

Track history (hours):
 
Tides and Currents Weather Stations Pressure Air Temp Water Temp Dewpoint Dewpoint Depression Visibility Wind Speed Wind Dir Waves Ship Positions

Patapsco

Owner: Vane Line Bunkering, Inc., Philadelphia, PA. More information available from US FCC via Universal Licensing System and Coast Guard Vessel Documentation Center.

Last reported at 2017-Nov-01 02:01 UTC. Time now 2017-Dec-11 02:01 UTC.
Position N 39°59' W 075°05'.
Warning: this ship's position is 40 days out of date.

Length 33 m; draft 4.5 m.

Type: Towing. MMSI: 366948020.

Date/timePositionNaut miles runAvg speedWind from/ knotsBaromVisibWave heightAir tempDewpointWater temp
2017-Nov-01 02:01N 39°59' W 075°05'0 0.7
2017-Nov-01 01:31N 39°59' W 075°04'4 7.6
2017-Nov-01 01:01N 39°56' W 075°08'3 5.1
2017-Nov-01 00:30N 39°54' W 075°08'0 0.1
2017-Nov-01 00:01N 39°54' W 075°08'3 5.3
2017-Oct-31 23:30N 39°53' W 075°12'510.5
2017-Oct-31 23:00N 39°51' W 075°18'510.5
2017-Oct-31 22:31N 39°49' W 075°24'510.4
2017-Oct-31 22:01N 39°45' W 075°29'3 5.1
2017-Oct-31 21:30N 39°43' W 075°31'0 0.0
2017-Oct-31 21:00N 39°43' W 075°31'0 0.0
2017-Oct-31 20:30N 39°43' W 075°31'0 0.0
2017-Oct-31 20:00N 39°43' W 075°31'0 0.0
2017-Oct-31 19:30N 39°43' W 075°31'0 0.0
2017-Oct-31 19:00N 39°43' W 075°31'0 0.0
2017-Oct-31 18:30N 39°43' W 075°31'0 0.0
2017-Oct-31 18:00N 39°43' W 075°31'0 0.0
2017-Oct-31 17:30N 39°43' W 075°31'0 0.0
2017-Oct-31 17:00N 39°43' W 075°31'0 0.3
2017-Oct-31 16:30N 39°43' W 075°31'0 0.0
2017-Oct-31 16:00N 39°43' W 075°31'0 0.0
2017-Oct-31 15:30N 39°43' W 075°31'0 0.0
2017-Oct-31 15:00N 39°43' W 075°31'0 0.0
2017-Oct-31 14:30N 39°43' W 075°31'0 0.0
2017-Oct-31 14:00N 39°43' W 075°31'0 0.0
2017-Oct-31 13:30N 39°43' W 075°31'0 0.0
2017-Oct-31 13:00N 39°43' W 075°31'0 0.0
2017-Oct-31 12:30N 39°43' W 075°31'0 0.0
2017-Oct-31 12:00N 39°43' W 075°31'0 0.8
2017-Oct-31 11:30N 39°43' W 075°31'3 6.8
2017-Oct-31 11:00N 39°46' W 075°29'4 7.7
2017-Oct-31 10:30N 39°48' W 075°25'4 8.8
2017-Oct-31 10:00N 39°51' W 075°20'5 9.2
2017-Oct-31 09:31N 39°51' W 075°14'5 9.1
2017-Oct-31 09:00N 39°53' W 075°09'5 9.2
2017-Oct-31 08:31N 39°58' W 075°08'3 5.9
2017-Oct-31 08:01N 39°59' W 075°04'0 0.0
2017-Oct-31 07:30N 39°59' W 075°04'1 1.1
2017-Oct-31 07:01N 39°59' W 075°05'0 0.0
2017-Oct-31 06:30N 39°59' W 075°05'0 0.0
2017-Oct-31 06:01N 39°59' W 075°05'1 1.2
2017-Oct-31 05:31N 39°59' W 075°04'1 2.7
2017-Oct-31 05:01N 39°58' W 075°06'3 5.9
2017-Oct-31 04:31N 39°56' W 075°08'3 5.0
2017-Oct-31 04:00N 39°54' W 075°08'0 0.1
2017-Oct-31 03:31N 39°54' W 075°08'0 0.1
2017-Oct-31 03:01N 39°54' W 075°08'0 0.1
2017-Oct-31 02:31N 39°54' W 075°08'3 6.7
2017-Oct-31 02:01N 39°52' W 075°12'3 5.9
2017-Oct-31 01:31N 39°53' W 075°09'1 2.4
2017-Oct-31 01:01N 39°54' W 075°08'0 0.9
2017-Oct-31 00:30N 39°54' W 075°08'0 0.1
2017-Oct-31 00:01N 39°54' W 075°08'0 0.0
2017-Oct-30 23:30N 39°54' W 075°08'0 0.0
2017-Oct-30 23:01N 39°54' W 075°08'0 0.0
2017-Oct-30 22:31N 39°54' W 075°08'0 0.1
2017-Oct-30 22:01N 39°54' W 075°08'0 0.0
2017-Oct-30 21:31N 39°54' W 075°08'0 0.0
2017-Oct-30 21:01N 39°54' W 075°08'0 0.0
2017-Oct-30 20:31N 39°54' W 075°08'0 0.0
2017-Oct-30 20:01N 39°54' W 075°08'0 0.0
2017-Oct-30 19:31N 39°54' W 075°08'0 0.0
2017-Oct-30 19:01N 39°54' W 075°08'0 0.0
2017-Oct-30 18:31N 39°54' W 075°08'0 0.0
2017-Oct-30 18:00N 39°54' W 075°08'0 0.0
2017-Oct-30 17:30N 39°54' W 075°08'0 0.0
2017-Oct-30 17:00N 39°54' W 075°08'0 0.0
2017-Oct-30 16:31N 39°54' W 075°08'0 0.0
2017-Oct-30 16:01N 39°54' W 075°08'0 0.0
2017-Oct-30 15:30N 39°54' W 075°08'0 0.0
2017-Oct-30 15:01N 39°54' W 075°08'0 0.0
2017-Oct-30 14:30N 39°54' W 075°08'0 0.1
2017-Oct-30 13:31N 39°54' W 075°08'0 0.1
2017-Oct-30 13:00N 39°54' W 075°08'0 0.6
2017-Oct-30 12:31N 39°54' W 075°08'0 0.5
2017-Oct-30 12:01N 39°54' W 075°08'0 0.1
2017-Oct-30 11:31N 39°54' W 075°08'0 0.0
2017-Oct-30 11:00N 39°54' W 075°08'0 0.0
2017-Oct-30 10:31N 39°54' W 075°08'0 0.0
2017-Oct-30 10:01N 39°54' W 075°08'0 0.0
2017-Oct-30 09:30N 39°54' W 075°08'1 1.8
2017-Oct-30 09:00N 39°53' W 075°09'2 4.3
2017-Oct-30 08:30N 39°53' W 075°12'0 0.5
2017-Oct-30 08:01N 39°53' W 075°12'3 5.5
2017-Oct-30 07:31N 39°54' W 075°08'4 7.9
2017-Oct-30 07:01N 39°58' W 075°08'3 6.1
2017-Oct-30 06:30N 39°59' W 075°04'0 0.2
2017-Oct-30 06:00N 39°59' W 075°04'1 1.1
2017-Oct-30 05:31N 39°59' W 075°05'0 0.0
2017-Oct-30 05:00N 39°59' W 075°05'0 0.0
2017-Oct-30 04:30N 39°59' W 075°05'0 0.0
2017-Oct-30 04:00N 39°59' W 075°05'0 0.0
2017-Oct-30 03:31N 39°59' W 075°05'0 0.0
2017-Oct-30 03:00N 39°59' W 075°05'0 0.0
2017-Oct-30 02:31N 39°59' W 075°05'2 4.5
2017-Oct-30 02:00N 39°58' W 075°08'4 8.3
2017-Oct-30 01:31N 39°54' W 075°08'1 1.7
2017-Oct-30 01:01N 39°53' W 075°09'3 5.4
2017-Oct-30 00:31N 39°54' W 075°12'1 2.2
2017-Oct-30 00:00N 39°55' W 075°13'1 1.7
2017-Oct-29 23:30N 39°54' W 075°13'3 6.6
2017-Oct-29 23:01N 39°53' W 075°08'0 0.7
2017-Oct-29 22:31N 39°54' W 075°08'0 0.0
2017-Oct-29 22:01N 39°54' W 075°08'0 0.0
2017-Oct-29 21:31N 39°54' W 075°08'0 0.1
2017-Oct-29 21:01N 39°54' W 075°08'1 1.5
2017-Oct-29 20:31N 39°53' W 075°09'4 7.2
2017-Oct-29 20:01N 39°54' W 075°13'0 0.2
2017-Oct-29 19:31N 39°55' W 075°13'2 3.6
2017-Oct-29 19:01N 39°53' W 075°12'3 5.5
2017-Oct-29 18:31N 39°54' W 075°08'0 0.7
2017-Oct-29 18:01N 39°54' W 075°08'5 9.3
2017-Oct-29 17:30N 39°58' W 075°06'1 2.8
2017-Oct-29 17:01N 39°59' W 075°04'2 4.9
2017-Oct-29 16:31N 39°58' W 075°07'2 4.7
2017-Oct-29 16:01N 39°56' W 075°08'3 5.1
2017-Oct-29 15:31N 39°53' W 075°08'3 5.1
2017-Oct-29 15:01N 39°53' W 075°12'1 1.2
2017-Oct-29 14:31N 39°54' W 075°12'0 0.0
2017-Oct-29 14:01N 39°53' W 075°12'3 5.5
2017-Oct-29 13:31N 39°52' W 075°14'5 9.9
2017-Oct-29 13:01N 39°51' W 075°20'510.0
2017-Oct-29 12:30N 39°48' W 075°26'510.4
2017-Oct-29 12:00N 39°44' W 075°30'1 2.4
2017-Oct-29 11:30N 39°43' W 075°31'2 3.4
2017-Oct-29 11:00N 39°44' W 075°30'4 8.1
2017-Oct-29 10:30N 39°48' W 075°27'4 8.3
2017-Oct-29 10:00N 39°50' W 075°22'4 7.5
2017-Oct-29 09:30N 39°51' W 075°17'3 7.0
2017-Oct-29 09:01N 39°52' W 075°13'1 2.8
2017-Oct-29 08:31N 39°53' W 075°12'1 1.6
2017-Oct-29 08:01N 39°54' W 075°12'0 0.0
2017-Oct-29 07:31N 39°54' W 075°12'1 1.6
2017-Oct-29 07:01N 39°54' W 075°13'0 0.5
2017-Oct-29 06:31N 39°55' W 075°13'2 3.6
2017-Oct-29 06:01N 39°53' W 075°12'3 5.6
2017-Oct-29 05:31N 39°54' W 075°08'0 0.4
2017-Oct-29 05:01N 39°54' W 075°08'0 0.1
2017-Oct-29 04:30N 39°54' W 075°08'3 5.0
2017-Oct-29 04:00N 39°56' W 075°08'4 0.4
2017-Oct-28 19:00N 39°53' W 075°12'1 2.4
2017-Oct-28 18:31N 39°52' W 075°12'4 7.1
2017-Oct-28 18:00N 39°51' W 075°17'4 7.1
2017-Oct-28 17:30N 39°50' W 075°21'4 7.0
2017-Oct-28 17:01N 39°48' W 075°25'4 7.0
2017-Oct-28 16:31N 39°46' W 075°28'3 6.5
2017-Oct-28 16:01N 39°43' W 075°30'1 1.5
2017-Oct-28 15:31N 39°43' W 075°31'0 0.9
2017-Oct-28 15:00N 39°43' W 075°31'611.0
2017-Oct-28 14:30N 39°48' W 075°27'611.2
2017-Oct-28 14:01N 39°51' W 075°21'5 9.8
2017-Oct-28 13:31N 39°51' W 075°14'1 2.2
2017-Oct-28 13:01N 39°52' W 075°13'0 0.4
2017-Oct-28 12:30N 39°52' W 075°13'4 7.9
2017-Oct-28 12:01N 39°54' W 075°08'4 8.2
2017-Oct-28 11:31N 39°58' W 075°08'3 5.7
2017-Oct-28 11:01N 39°59' W 075°04'0 0.2
2017-Oct-28 10:31N 39°59' W 075°04'0 0.0
2017-Oct-28 10:01N 39°59' W 075°04'0 0.0
2017-Oct-28 09:31N 39°59' W 075°04'1 1.2
2017-Oct-28 09:01N 39°59' W 075°05'0 0.0
2017-Oct-28 08:31N 39°59' W 075°05'0 0.0
2017-Oct-28 08:00N 39°59' W 075°05'0 0.0
2017-Oct-28 07:30N 39°59' W 075°05'0 0.0
2017-Oct-28 07:00N 39°59' W 075°05'0 0.0
2017-Oct-28 06:30N 39°59' W 075°05'0 0.0
2017-Oct-28 06:00N 39°59' W 075°05'0 0.0
2017-Oct-28 05:30N 39°59' W 075°05'0 0.0
2017-Oct-28 05:00N 39°59' W 075°05'0 0.0
2017-Oct-28 04:30N 39°59' W 075°05'0 0.0
2017-Oct-28 04:00N 39°59' W 075°05'1 1.2
2017-Oct-28 03:30N 39°59' W 075°04'0 0.0
2017-Oct-28 03:00N 39°59' W 075°04'1 1.2
2017-Oct-28 02:31N 39°59' W 075°05'0 0.0
2017-Oct-28 02:00N 39°59' W 075°05'0 0.0
2017-Oct-28 01:31N 39°59' W 075°05'1 1.1
2017-Oct-28 01:01N 39°59' W 075°04'4 7.5
2017-Oct-28 00:31N 39°57' W 075°08'4 8.2
2017-Oct-28 00:01N 39°53' W 075°10'1 2.9
2017-Oct-27 23:31N 39°53' W 075°12'3 5.5
2017-Oct-27 23:01N 39°54' W 075°08'4 7.9
2017-Oct-27 22:30N 39°58' W 075°08'2 4.0
2017-Oct-27 22:01N 39°59' W 075°05'1 2.0
2017-Oct-27 21:30N 39°59' W 075°04'3 6.6
2017-Oct-27 21:00N 39°57' W 075°08'4 7.2
2017-Oct-27 20:31N 39°54' W 075°08'1 2.6
2017-Oct-27 20:00N 39°55' W 075°08'4 7.1
2017-Oct-27 19:31N 39°58' W 075°06'1 1.8
2017-Oct-27 19:00N 39°59' W 075°05'1 1.9
2017-Oct-27 18:31N 39°59' W 075°04'1 1.1
2017-Oct-27 18:01N 39°59' W 075°05'1 1.8
2017-Oct-27 17:31N 39°58' W 075°06'4 7.4
2017-Oct-27 17:01N 39°55' W 075°08'1 2.8
2017-Oct-27 16:31N 39°54' W 075°08'0 0.1
2017-Oct-27 16:00N 39°54' W 075°08'3 5.4
2017-Oct-27 15:31N 39°53' W 075°12'4 7.7
2017-Oct-27 15:01N 39°51' W 075°16'4 7.9
2017-Oct-27 14:31N 39°50' W 075°21'3 5.9
2017-Oct-27 14:00N 39°49' W 075°24'0 0.0
2017-Oct-27 13:30N 39°49' W 075°24'0 0.0
2017-Oct-27 13:01N 39°49' W 075°24'0 0.1
2017-Oct-27 12:30N 39°49' W 075°24'0 0.4
2017-Oct-27 12:00N 39°49' W 075°24'0 0.1
2017-Oct-27 11:31N 39°49' W 075°24'0 0.0
2017-Oct-27 11:00N 39°49' W 075°24'0 0.0
2017-Oct-27 10:30N 39°49' W 075°24'0 0.0
2017-Oct-27 10:01N 39°49' W 075°24'0 0.1
2017-Oct-27 09:30N 39°49' W 075°24'0 0.0
2017-Oct-27 09:01N 39°49' W 075°24'0 0.7
2017-Oct-27 08:31N 39°49' W 075°23'4 7.5
2017-Oct-27 08:01N 39°51' W 075°19'4 8.0
2017-Oct-27 07:30N 39°51' W 075°14'3 5.3
2017-Oct-27 07:01N 39°54' W 075°13'1 1.4
2017-Oct-27 06:31N 39°55' W 075°13'0 0.0
2017-Oct-27 06:01N 39°55' W 075°13'0 0.0
2017-Oct-27 05:31N 39°55' W 075°13'0 0.0
2017-Oct-27 05:01N 39°55' W 075°13'1 2.1
2017-Oct-27 04:30N 39°54' W 075°12'0 0.0
2017-Oct-27 04:01N 39°54' W 075°12'0 0.0
2017-Oct-27 03:30N 39°54' W 075°12'0 0.0
2017-Oct-27 03:01N 39°54' W 075°12'0 0.0
2017-Oct-27 02:31N 39°54' W 075°12'0 0.0
2017-Oct-27 02:00N 39°54' W 075°12'0 0.0
2017-Oct-27 01:31N 39°54' W 075°12'0 0.0
2017-Oct-27 01:00N 39°54' W 075°12'0 0.0
2017-Oct-27 00:30N 39°54' W 075°12'0 0.0
2017-Oct-27 00:00N 39°54' W 075°12'1 2.5
2017-Oct-26 23:31N 39°53' W 075°11'2 4.4
2017-Oct-26 23:01N 39°54' W 075°08'1 2.6
2017-Oct-26 22:31N 39°55' W 075°08'3 6.8
2017-Oct-26 22:01N 39°58' W 075°07'2 3.8
2017-Oct-26 21:31N 39°59' W 075°04'2 3.6
2017-Oct-26 21:01N 39°58' W 075°06'5 9.3
2017-Oct-26 20:31N 39°54' W 075°08'3 6.4
2017-Oct-26 19:59N 39°54' W 075°12'0 0.0
2017-Oct-26 19:29N 39°54' W 075°12'0 0.0
2017-Oct-26 18:59N 39°54' W 075°12'0 0.0
2017-Oct-26 18:29N 39°54' W 075°12'0 0.0
2017-Oct-26 17:59N 39°54' W 075°12'0 0.0
2017-Oct-26 17:29N 39°54' W 075°12'0 0.0
2017-Oct-26 16:56N 39°54' W 075°12'0 0.0
2017-Oct-26 16:29N 39°54' W 075°12'0 0.0
2017-Oct-26 15:59N 39°54' W 075°12'0 0.0
2017-Oct-26 15:29N 39°54' W 075°12'0 0.0
2017-Oct-26 14:59N 39°54' W 075°12'0 0.0
2017-Oct-26 14:29N 39°54' W 075°12'0 0.0
2017-Oct-26 13:59N 39°54' W 075°12'0 0.0
2017-Oct-26 13:29N 39°54' W 075°12'0 0.0
2017-Oct-26 12:59N 39°54' W 075°12'0 0.0
2017-Oct-26 12:29N 39°54' W 075°12'0 0.0
2017-Oct-26 11:59N 39°54' W 075°12'0 0.0
2017-Oct-26 11:30N 39°54' W 075°12'0 0.0
2017-Oct-26 11:00N 39°54' W 075°12'3 6.7
2017-Oct-26 10:31N 39°51' W 075°15'0 0.0
2017-Oct-26 10:00N 39°51' W 075°15'2 3.7
2017-Oct-26 09:30N 39°52' W 075°13'2 3.4
2017-Oct-26 09:00N 39°54' W 075°12'0 0.0
2017-Oct-26 08:30N 39°54' W 075°12'0 0.2
2017-Oct-26 08:00N 39°54' W 075°12'0 0.0
2017-Oct-26 07:30N 39°54' W 075°12'0 0.0
2017-Oct-26 07:00N 39°54' W 075°12'0 0.0
2017-Oct-26 06:30N 39°54' W 075°12'0 0.0
2017-Oct-26 06:00N 39°54' W 075°12'0 0.0
2017-Oct-26 05:30N 39°54' W 075°12'0 0.0
2017-Oct-26 05:00N 39°54' W 075°12'0 0.0
2017-Oct-26 04:30N 39°54' W 075°12'0 0.0
2017-Oct-26 04:00N 39°54' W 075°12'0 0.0
2017-Oct-26 03:30N 39°54' W 075°12'0 0.0
2017-Oct-26 03:00N 39°54' W 075°12'0 0.0
2017-Oct-26 02:30N 39°54' W 075°12'0 0.1
2017-Oct-26 02:00N 39°54' W 075°12'0 0.1
2017-Oct-26 01:30N 39°54' W 075°12'0 0.0
2017-Oct-26 01:00N 39°54' W 075°12'0 0.0
2017-Oct-26 00:30N 39°54' W 075°12'0 0.0
2017-Oct-26 00:00N 39°54' W 075°12'0 0.0
2017-Oct-25 23:31N 39°54' W 075°12'0 0.0
2017-Oct-25 23:00N 39°54' W 075°12'0 0.0
2017-Oct-25 22:31N 39°54' W 075°12'0 0.0
2017-Oct-25 22:01N 39°54' W 075°12'0 0.0
2017-Oct-25 21:30N 39°54' W 075°12'0 0.1
2017-Oct-25 21:00N 39°54' W 075°12'1 1.2
2017-Oct-25 20:30N 39°53' W 075°12'3 5.5
2017-Oct-25 20:01N 39°51' W 075°14'3 6.8
2017-Oct-25 19:31N 39°51' W 075°19'611.2
2017-Oct-25 19:01N 39°48' W 075°25'611.2
2017-Oct-25 18:31N 39°44' W 075°30'611.3
2017-Oct-25 18:01N 39°39' W 075°33'5 9.3
2017-Oct-25 17:31N 39°34' W 075°33'0 0.7
2017-Oct-25 17:00N 39°34' W 075°33'0 0.0
2017-Oct-25 16:31N 39°34' W 075°33'0 0.0
2017-Oct-25 16:01N 39°34' W 075°33'0 0.0
2017-Oct-25 15:31N 39°34' W 075°33'0 0.0
2017-Oct-25 15:01N 39°34' W 075°33'0 0.0
2017-Oct-25 14:31N 39°34' W 075°33'0 0.0
2017-Oct-25 14:01N 39°34' W 075°33'0 0.0
2017-Oct-25 13:31N 39°34' W 075°33'0 0.0
2017-Oct-25 13:01N 39°34' W 075°33'0 0.0
2017-Oct-25 12:30N 39°34' W 075°33'0 0.8
2017-Oct-25 12:01N 39°35' W 075°33'3 5.4
2017-Oct-25 11:30N 39°37' W 075°35'4 8.5
2017-Oct-25 11:00N 39°40' W 075°32'4 8.6
2017-Oct-25 10:30N 39°45' W 075°30'4 7.8
2017-Oct-25 10:00N 39°48' W 075°27'4 7.6
2017-Oct-25 09:30N 39°50' W 075°22'3 6.7
2017-Oct-25 09:00N 39°51' W 075°18'3 6.5
2017-Oct-25 08:30N 39°51' W 075°14'3 5.7
2017-Oct-25 08:01N 39°53' W 075°12'0 0.0
2017-Oct-25 07:30N 39°53' W 075°12'0 0.2
2017-Oct-25 07:01N 39°54' W 075°12'0 0.1
2017-Oct-25 06:30N 39°53' W 075°12'0 0.0
2017-Oct-25 06:00N 39°53' W 075°12'0 0.0
2017-Oct-25 05:31N 39°53' W 075°12'0 0.0
2017-Oct-25 05:00N 39°53' W 075°12'0 0.0
2017-Oct-25 04:30N 39°53' W 075°12'0 0.8
2017-Oct-25 04:00N 39°54' W 075°12'1 2.2
2017-Oct-25 03:30N 39°53' W 075°11'2 4.5
2017-Oct-25 03:01N 39°54' W 075°08'1 1.7
2017-Oct-25 02:31N 39°54' W 075°08'0 1.0
2017-Oct-25 02:00N 39°54' W 075°08'0 0.9
2017-Oct-25 01:30N 39°54' W 075°08'0 0.0
2017-Oct-25 01:00N 39°54' W 075°08'0 0.0
2017-Oct-25 00:30N 39°54' W 075°08'0 0.0
2017-Oct-25 00:00N 39°54' W 075°08'0 0.0
2017-Oct-24 23:30N 39°54' W 075°08'0 0.2
2017-Oct-24 23:00N 39°54' W 075°08'0 0.3
2017-Oct-24 22:30N 39°54' W 075°08'0 0.0
2017-Oct-24 22:00N 39°54' W 075°08'0 0.0
2017-Oct-24 21:31N 39°54' W 075°08'0 0.0
2017-Oct-24 21:00N 39°54' W 075°08'0 0.0
2017-Oct-24 20:30N 39°54' W 075°08'0 0.1
2017-Oct-24 20:00N 39°54' W 075°08'0 0.5
2017-Oct-24 19:31N 39°54' W 075°08'1 1.3
2017-Oct-24 19:00N 39°54' W 075°08'0 0.2
2017-Oct-24 18:30N 39°54' W 075°08'4 8.2
2017-Oct-24 18:00N 39°52' W 075°12'5 9.2
2017-Oct-24 17:30N 39°51' W 075°18'5 9.3
2017-Oct-24 17:00N 39°49' W 075°24'4 8.8
2017-Oct-24 16:30N 39°46' W 075°28'4 7.9
2017-Oct-24 16:00N 39°43' W 075°31'0 0.5
2017-Oct-24 15:30N 39°43' W 075°31'0 0.0
2017-Oct-24 15:00N 39°43' W 075°31'0 0.0
2017-Oct-24 14:30N 39°43' W 075°31'0 0.0
2017-Oct-24 14:01N 39°43' W 075°31'0 0.0
2017-Oct-24 13:31N 39°43' W 075°31'0 0.0
2017-Oct-24 13:00N 39°43' W 075°31'0 0.0
2017-Oct-24 12:30N 39°43' W 075°31'0 0.0
2017-Oct-24 12:01N 39°43' W 075°31'1 1.0
2017-Oct-24 11:30N 39°43' W 075°31'3 5.0
2017-Oct-24 11:00N 39°45' W 075°29'4 8.6
2017-Oct-24 10:31N 39°48' W 075°25'4 8.4
2017-Oct-24 10:00N 39°51' W 075°21'4 7.8
2017-Oct-24 09:30N 39°51' W 075°16'4 7.6
2017-Oct-24 09:00N 39°53' W 075°11'3 5.0
2017-Oct-24 08:30N 39°54' W 075°08'0 0.0
2017-Oct-24 08:00N 39°54' W 075°08'0 0.0
2017-Oct-24 07:30N 39°54' W 075°08'0 0.0
2017-Oct-24 07:00N 39°54' W 075°08'0 0.0
2017-Oct-24 06:30N 39°54' W 075°08'0 0.0
2017-Oct-24 06:00N 39°54' W 075°08'0 0.0
2017-Oct-24 05:30N 39°54' W 075°08'0 0.0
2017-Oct-24 05:00N 39°54' W 075°08'0 0.0
2017-Oct-24 04:30N 39°54' W 075°08'0 0.0
2017-Oct-24 04:00N 39°54' W 075°08'0 0.0
2017-Oct-24 03:30N 39°54' W 075°08'0 0.0
2017-Oct-24 03:00N 39°54' W 075°08'0 0.0
2017-Oct-24 02:30N 39°54' W 075°08'0 0.0
2017-Oct-24 02:00N 39°54' W 075°08'2 3.2
2017-Oct-24 01:31N 39°55' W 075°08'5 9.0
2017-Oct-24 01:00N 39°59' W 075°04'1 2.2
2017-Oct-24 00:30N 39°58' W 075°06'4 7.1
2017-Oct-24 00:00N 39°55' W 075°08'2 3.4
2017-Oct-23 23:31N 39°54' W 075°08'0 0.9
2017-Oct-23 23:00N 39°54' W 075°08'3 6.7
2017-Oct-23 22:31N 39°57' W 075°08'3 6.0
2017-Oct-23 22:00N 39°59' W 075°04'0 0.0
2017-Oct-23 21:30N 39°59' W 075°04'0 0.7
2017-Oct-23 21:00N 39°59' W 075°05'0 0.4
2017-Oct-23 20:30N 39°59' W 075°05'0 0.0
2017-Oct-23 20:00N 39°59' W 075°05'0 0.0
2017-Oct-23 19:31N 39°59' W 075°05'1 1.1
2017-Oct-23 19:00N 39°59' W 075°04'3 6.0
2017-Oct-23 18:30N 39°58' W 075°08'4 7.8
2017-Oct-23 18:00N 39°54' W 075°08'0 0.9
2017-Oct-23 17:31N 39°54' W 075°08'0 0.1
2017-Oct-23 17:00N 39°54' W 075°08'0 0.5
2017-Oct-23 16:31N 39°54' W 075°08'0 0.9
2017-Oct-23 16:01N 39°54' W 075°08'2 3.5
2017-Oct-23 15:30N 39°53' W 075°09'2 3.9
2017-Oct-23 15:00N 39°53' W 075°12'2 3.2
2017-Oct-23 14:30N 39°55' W 075°13'0 0.8
2017-Oct-23 14:01N 39°54' W 075°13'3 6.3
2017-Oct-23 13:30N 39°53' W 075°09'1 2.1
2017-Oct-23 13:00N 39°54' W 075°08'0 0.0
2017-Oct-23 12:30N 39°54' W 075°08'0 0.4
2017-Oct-23 12:00N 39°54' W 075°08'0 0.0
2017-Oct-23 11:31N 39°54' W 075°08'0 0.3
2017-Oct-23 11:01N 39°54' W 075°08'0 0.0
2017-Oct-23 10:30N 39°54' W 075°08'0 0.0
2017-Oct-23 10:01N 39°54' W 075°08'0 0.0
2017-Oct-23 09:30N 39°54' W 075°08'0 0.1
2017-Oct-23 09:00N 39°54' W 075°08'0 0.1
2017-Oct-23 08:30N 39°54' W 075°08'0 0.0
2017-Oct-23 08:00N 39°54' W 075°08'0 0.0
2017-Oct-23 07:30N 39°54' W 075°08'0 0.0
2017-Oct-23 07:00N 39°54' W 075°08'0 0.0
2017-Oct-23 06:30N 39°54' W 075°08'0 0.0
2017-Oct-23 06:00N 39°54' W 075°08'0 0.0
2017-Oct-23 05:30N 39°54' W 075°08'3 5.4
2017-Oct-23 05:00N 39°53' W 075°12'2 3.7
2017-Oct-23 04:30N 39°55' W 075°13'0 0.1
2017-Oct-23 04:00N 39°55' W 075°13'0 0.0
2017-Oct-23 03:31N 39°55' W 075°13'0 0.0
2017-Oct-23 03:01N 39°55' W 075°13'1 2.1
2017-Oct-23 02:31N 39°54' W 075°12'0 0.0
2017-Oct-23 02:00N 39°54' W 075°12'0 0.0
2017-Oct-23 01:30N 39°54' W 075°12'0 0.0
2017-Oct-23 01:00N 39°54' W 075°12'0 0.4
2017-Oct-23 00:31N 39°54' W 075°13'1 1.4
2017-Oct-23 00:00N 39°54' W 075°13'1 2.8
2017-Oct-22 23:30N 39°53' W 075°12'0 0.0
2017-Oct-22 23:01N 39°53' W 075°12'0 0.0
2017-Oct-22 22:30N 39°53' W 075°12'0 0.0
2017-Oct-22 22:00N 39°53' W 075°12'0 0.0
2017-Oct-22 21:30N 39°53' W 075°12'0 0.3
2017-Oct-22 21:00N 39°53' W 075°12'2 4.6
2017-Oct-22 20:31N 39°52' W 075°14'4 7.4
2017-Oct-22 20:01N 39°51' W 075°18'4 8.8
2017-Oct-22 19:30N 39°49' W 075°24'0 0.0
2017-Oct-22 19:01N 39°49' W 075°24'2 4.6
2017-Oct-22 18:30N 39°48' W 075°26'5 9.7
2017-Oct-22 18:00N 39°44' W 075°30'1 2.4
2017-Oct-22 17:30N 39°43' W 075°31'2 3.4
2017-Oct-22 17:00N 39°44' W 075°30'3 6.8
2017-Oct-22 16:30N 39°47' W 075°27'4 7.4
2017-Oct-22 16:00N 39°49' W 075°23'3 6.9
2017-Oct-22 15:30N 39°51' W 075°19'4 8.2
2017-Oct-22 15:00N 39°52' W 075°14'0 0.4
2017-Oct-22 14:30N 39°51' W 075°14'5 9.6
2017-Oct-22 14:00N 39°51' W 075°20'4 7.1
2017-Oct-22 13:30N 39°49' W 075°24'0 0.0
2017-Oct-22 13:00N 39°49' W 075°24'0 0.0
2017-Oct-22 12:30N 39°49' W 075°24'0 0.0
2017-Oct-22 12:00N 39°49' W 075°24'0 0.0
2017-Oct-22 11:30N 39°49' W 075°24'0 0.0
2017-Oct-22 11:00N 39°49' W 075°24'0 0.0
2017-Oct-22 10:30N 39°49' W 075°24'0 0.0
2017-Oct-22 10:00N 39°49' W 075°24'0 0.0
2017-Oct-22 09:30N 39°49' W 075°24'0 0.0
2017-Oct-22 09:00N 39°49' W 075°24'0 0.2
2017-Oct-22 08:30N 39°49' W 075°24'0 0.3
2017-Oct-22 08:00N 39°49' W 075°24'0 0.1
2017-Oct-22 07:30N 39°49' W 075°24'0 0.0
2017-Oct-22 07:00N 39°49' W 075°24'1 1.1
2017-Oct-22 06:30N 39°49' W 075°23'2 3.6
2017-Oct-22 06:00N 39°50' W 075°21'3 5.0
2017-Oct-22 05:30N 39°51' W 075°18'3 5.1
2017-Oct-22 05:00N 39°51' W 075°15'2 4.7
2017-Oct-22 04:30N 39°52' W 075°12'2 3.8
2017-Oct-22 04:00N 39°53' W 075°10'1 2.8
2017-Oct-22 03:30N 39°54' W 075°08'0 0.0
2017-Oct-22 03:00N 39°54' W 075°08'0 0.0
2017-Oct-22 02:30N 39°54' W 075°08'  
Track history (hours):
 
Tides and Currents Weather Stations Pressure Air Temp Water Temp Dewpoint Dewpoint Depression Visibility Wind Speed Wind Dir Waves Ship Positions

Patapsco

Owner: Vane Line Bunkering, Inc., Philadelphia, PA. More information available from US FCC via Universal Licensing System and Coast Guard Vessel Documentation Center.

Last reported at 2017-Nov-01 02:01 UTC. Time now 2017-Dec-11 02:01 UTC.
Position N 39°59' W 075°05'.
Warning: this ship's position is 40 days out of date.

Length 33 m; draft 4.5 m.

Type: Towing. MMSI: 366948020.

Date/timePositionNaut miles runAvg speedWind from/ knotsBaromVisibWave heightAir tempDewpointWater temp
2017-Nov-01 02:01N 39°59' W 075°05'0 0.7
2017-Nov-01 01:31N 39°59' W 075°04'4 7.6
2017-Nov-01 01:01N 39°56' W 075°08'3 5.1
2017-Nov-01 00:30N 39°54' W 075°08'0 0.1
2017-Nov-01 00:01N 39°54' W 075°08'3 5.3
2017-Oct-31 23:30N 39°53' W 075°12'510.5
2017-Oct-31 23:00N 39°51' W 075°18'510.5
2017-Oct-31 22:31N 39°49' W 075°24'510.4
2017-Oct-31 22:01N 39°45' W 075°29'3 5.1
2017-Oct-31 21:30N 39°43' W 075°31'0 0.0
2017-Oct-31 21:00N 39°43' W 075°31'0 0.0
2017-Oct-31 20:30N 39°43' W 075°31'0 0.0
2017-Oct-31 20:00N 39°43' W 075°31'0 0.0
2017-Oct-31 19:30N 39°43' W 075°31'0 0.0
2017-Oct-31 19:00N 39°43' W 075°31'0 0.0
2017-Oct-31 18:30N 39°43' W 075°31'0 0.0
2017-Oct-31 18:00N 39°43' W 075°31'0 0.0
2017-Oct-31 17:30N 39°43' W 075°31'0 0.0
2017-Oct-31 17:00N 39°43' W 075°31'0 0.3
2017-Oct-31 16:30N 39°43' W 075°31'0 0.0
2017-Oct-31 16:00N 39°43' W 075°31'0 0.0
2017-Oct-31 15:30N 39°43' W 075°31'0 0.0
2017-Oct-31 15:00N 39°43' W 075°31'0 0.0
2017-Oct-31 14:30N 39°43' W 075°31'0 0.0
2017-Oct-31 14:00N 39°43' W 075°31'0 0.0
2017-Oct-31 13:30N 39°43' W 075°31'0 0.0
2017-Oct-31 13:00N 39°43' W 075°31'0 0.0
2017-Oct-31 12:30N 39°43' W 075°31'0 0.0
2017-Oct-31 12:00N 39°43' W 075°31'0 0.8
2017-Oct-31 11:30N 39°43' W 075°31'3 6.8
2017-Oct-31 11:00N 39°46' W 075°29'4 7.7
2017-Oct-31 10:30N 39°48' W 075°25'4 8.8
2017-Oct-31 10:00N 39°51' W 075°20'5 9.2
2017-Oct-31 09:31N 39°51' W 075°14'5 9.1
2017-Oct-31 09:00N 39°53' W 075°09'5 9.2
2017-Oct-31 08:31N 39°58' W 075°08'3 5.9
2017-Oct-31 08:01N 39°59' W 075°04'0 0.0
2017-Oct-31 07:30N 39°59' W 075°04'1 1.1
2017-Oct-31 07:01N 39°59' W 075°05'0 0.0
2017-Oct-31 06:30N 39°59' W 075°05'0 0.0
2017-Oct-31 06:01N 39°59' W 075°05'1 1.2
2017-Oct-31 05:31N 39°59' W 075°04'1 2.7
2017-Oct-31 05:01N 39°58' W 075°06'3 5.9
2017-Oct-31 04:31N 39°56' W 075°08'3 5.0
2017-Oct-31 04:00N 39°54' W 075°08'0 0.1
2017-Oct-31 03:31N 39°54' W 075°08'0 0.1
2017-Oct-31 03:01N 39°54' W 075°08'0 0.1
2017-Oct-31 02:31N 39°54' W 075°08'3 6.7
2017-Oct-31 02:01N 39°52' W 075°12'3 5.9
2017-Oct-31 01:31N 39°53' W 075°09'1 2.4
2017-Oct-31 01:01N 39°54' W 075°08'0 0.9
2017-Oct-31 00:30N 39°54' W 075°08'0 0.1
2017-Oct-31 00:01N 39°54' W 075°08'0 0.0
2017-Oct-30 23:30N 39°54' W 075°08'0 0.0
2017-Oct-30 23:01N 39°54' W 075°08'0 0.0
2017-Oct-30 22:31N 39°54' W 075°08'0 0.1
2017-Oct-30 22:01N 39°54' W 075°08'0 0.0
2017-Oct-30 21:31N 39°54' W 075°08'0 0.0
2017-Oct-30 21:01N 39°54' W 075°08'0 0.0
2017-Oct-30 20:31N 39°54' W 075°08'0 0.0
2017-Oct-30 20:01N 39°54' W 075°08'0 0.0
2017-Oct-30 19:31N 39°54' W 075°08'0 0.0
2017-Oct-30 19:01N 39°54' W 075°08'0 0.0
2017-Oct-30 18:31N 39°54' W 075°08'0 0.0
2017-Oct-30 18:00N 39°54' W 075°08'0 0.0
2017-Oct-30 17:30N 39°54' W 075°08'0 0.0
2017-Oct-30 17:00N 39°54' W 075°08'0 0.0
2017-Oct-30 16:31N 39°54' W 075°08'0 0.0
2017-Oct-30 16:01N 39°54' W 075°08'0 0.0
2017-Oct-30 15:30N 39°54' W 075°08'0 0.0
2017-Oct-30 15:01N 39°54' W 075°08'0 0.0
2017-Oct-30 14:30N 39°54' W 075°08'0 0.1
2017-Oct-30 13:31N 39°54' W 075°08'0 0.1
2017-Oct-30 13:00N 39°54' W 075°08'0 0.6
2017-Oct-30 12:31N 39°54' W 075°08'0 0.5
2017-Oct-30 12:01N 39°54' W 075°08'0 0.1
2017-Oct-30 11:31N 39°54' W 075°08'0 0.0
2017-Oct-30 11:00N 39°54' W 075°08'0 0.0
2017-Oct-30 10:31N 39°54' W 075°08'0 0.0
2017-Oct-30 10:01N 39°54' W 075°08'0 0.0
2017-Oct-30 09:30N 39°54' W 075°08'1 1.8
2017-Oct-30 09:00N 39°53' W 075°09'2 4.3
2017-Oct-30 08:30N 39°53' W 075°12'0 0.5
2017-Oct-30 08:01N 39°53' W 075°12'3 5.5
2017-Oct-30 07:31N 39°54' W 075°08'4 7.9
2017-Oct-30 07:01N 39°58' W 075°08'3 6.1
2017-Oct-30 06:30N 39°59' W 075°04'0 0.2
2017-Oct-30 06:00N 39°59' W 075°04'1 1.1
2017-Oct-30 05:31N 39°59' W 075°05'0 0.0
2017-Oct-30 05:00N 39°59' W 075°05'0 0.0
2017-Oct-30 04:30N 39°59' W 075°05'0 0.0
2017-Oct-30 04:00N 39°59' W 075°05'0 0.0
2017-Oct-30 03:31N 39°59' W 075°05'0 0.0
2017-Oct-30 03:00N 39°59' W 075°05'0 0.0
2017-Oct-30 02:31N 39°59' W 075°05'2 4.5
2017-Oct-30 02:00N 39°58' W 075°08'4 8.3
2017-Oct-30 01:31N 39°54' W 075°08'1 1.7
2017-Oct-30 01:01N 39°53' W 075°09'3 5.4
2017-Oct-30 00:31N 39°54' W 075°12'1 2.2
2017-Oct-30 00:00N 39°55' W 075°13'1 1.7
2017-Oct-29 23:30N 39°54' W 075°13'3 6.6
2017-Oct-29 23:01N 39°53' W 075°08'0 0.7
2017-Oct-29 22:31N 39°54' W 075°08'0 0.0
2017-Oct-29 22:01N 39°54' W 075°08'0 0.0
2017-Oct-29 21:31N 39°54' W 075°08'0 0.1
2017-Oct-29 21:01N 39°54' W 075°08'1 1.5
2017-Oct-29 20:31N 39°53' W 075°09'4 7.2
2017-Oct-29 20:01N 39°54' W 075°13'0 0.2
2017-Oct-29 19:31N 39°55' W 075°13'2 3.6
2017-Oct-29 19:01N 39°53' W 075°12'3 5.5
2017-Oct-29 18:31N 39°54' W 075°08'0 0.7
2017-Oct-29 18:01N 39°54' W 075°08'5 9.3
2017-Oct-29 17:30N 39°58' W 075°06'1 2.8
2017-Oct-29 17:01N 39°59' W 075°04'2 4.9
2017-Oct-29 16:31N 39°58' W 075°07'2 4.7
2017-Oct-29 16:01N 39°56' W 075°08'3 5.1
2017-Oct-29 15:31N 39°53' W 075°08'3 5.1
2017-Oct-29 15:01N 39°53' W 075°12'1 1.2
2017-Oct-29 14:31N 39°54' W 075°12'0 0.0
2017-Oct-29 14:01N 39°53' W 075°12'3 5.5
2017-Oct-29 13:31N 39°52' W 075°14'5 9.9
2017-Oct-29 13:01N 39°51' W 075°20'510.0
2017-Oct-29 12:30N 39°48' W 075°26'510.4
2017-Oct-29 12:00N 39°44' W 075°30'1 2.4
2017-Oct-29 11:30N 39°43' W 075°31'2 3.4
2017-Oct-29 11:00N 39°44' W 075°30'4 8.1
2017-Oct-29 10:30N 39°48' W 075°27'4 8.3
2017-Oct-29 10:00N 39°50' W 075°22'4 7.5
2017-Oct-29 09:30N 39°51' W 075°17'3 7.0
2017-Oct-29 09:01N 39°52' W 075°13'1 2.8
2017-Oct-29 08:31N 39°53' W 075°12'1 1.6
2017-Oct-29 08:01N 39°54' W 075°12'0 0.0
2017-Oct-29 07:31N 39°54' W 075°12'1 1.6
2017-Oct-29 07:01N 39°54' W 075°13'0 0.5
2017-Oct-29 06:31N 39°55' W 075°13'2 3.6
2017-Oct-29 06:01N 39°53' W 075°12'3 5.6
2017-Oct-29 05:31N 39°54' W 075°08'0 0.4
2017-Oct-29 05:01N 39°54' W 075°08'0 0.1
2017-Oct-29 04:30N 39°54' W 075°08'3 5.0
2017-Oct-29 04:00N 39°56' W 075°08'4 0.4
2017-Oct-28 19:00N 39°53' W 075°12'1 2.4
2017-Oct-28 18:31N 39°52' W 075°12'4 7.1
2017-Oct-28 18:00N 39°51' W 075°17'4 7.1
2017-Oct-28 17:30N 39°50' W 075°21'4 7.0
2017-Oct-28 17:01N 39°48' W 075°25'4 7.0
2017-Oct-28 16:31N 39°46' W 075°28'3 6.5
2017-Oct-28 16:01N 39°43' W 075°30'1 1.5
2017-Oct-28 15:31N 39°43' W 075°31'0 0.9
2017-Oct-28 15:00N 39°43' W 075°31'611.0
2017-Oct-28 14:30N 39°48' W 075°27'611.2
2017-Oct-28 14:01N 39°51' W 075°21'5 9.8
2017-Oct-28 13:31N 39°51' W 075°14'1 2.2
2017-Oct-28 13:01N 39°52' W 075°13'0 0.4
2017-Oct-28 12:30N 39°52' W 075°13'4 7.9
2017-Oct-28 12:01N 39°54' W 075°08'4 8.2
2017-Oct-28 11:31N 39°58' W 075°08'3 5.7
2017-Oct-28 11:01N 39°59' W 075°04'0 0.2
2017-Oct-28 10:31N 39°59' W 075°04'0 0.0
2017-Oct-28 10:01N 39°59' W 075°04'0 0.0
2017-Oct-28 09:31N 39°59' W 075°04'1 1.2
2017-Oct-28 09:01N 39°59' W 075°05'0 0.0
2017-Oct-28 08:31N 39°59' W 075°05'0 0.0
2017-Oct-28 08:00N 39°59' W 075°05'0 0.0
2017-Oct-28 07:30N 39°59' W 075°05'0 0.0
2017-Oct-28 07:00N 39°59' W 075°05'0 0.0
2017-Oct-28 06:30N 39°59' W 075°05'0 0.0
2017-Oct-28 06:00N 39°59' W 075°05'0 0.0
2017-Oct-28 05:30N 39°59' W 075°05'0 0.0
2017-Oct-28 05:00N 39°59' W 075°05'0 0.0
2017-Oct-28 04:30N 39°59' W 075°05'0 0.0
2017-Oct-28 04:00N 39°59' W 075°05'1 1.2
2017-Oct-28 03:30N 39°59' W 075°04'0 0.0
2017-Oct-28 03:00N 39°59' W 075°04'1 1.2
2017-Oct-28 02:31N 39°59' W 075°05'0 0.0
2017-Oct-28 02:00N 39°59' W 075°05'0 0.0
2017-Oct-28 01:31N 39°59' W 075°05'1 1.1
2017-Oct-28 01:01N 39°59' W 075°04'4 7.5
2017-Oct-28 00:31N 39°57' W 075°08'4 8.2
2017-Oct-28 00:01N 39°53' W 075°10'1 2.9
2017-Oct-27 23:31N 39°53' W 075°12'3 5.5
2017-Oct-27 23:01N 39°54' W 075°08'4 7.9
2017-Oct-27 22:30N 39°58' W 075°08'2 4.0
2017-Oct-27 22:01N 39°59' W 075°05'1 2.0
2017-Oct-27 21:30N 39°59' W 075°04'3 6.6
2017-Oct-27 21:00N 39°57' W 075°08'4 7.2
2017-Oct-27 20:31N 39°54' W 075°08'1 2.6
2017-Oct-27 20:00N 39°55' W 075°08'4 7.1
2017-Oct-27 19:31N 39°58' W 075°06'1 1.8
2017-Oct-27 19:00N 39°59' W 075°05'1 1.9
2017-Oct-27 18:31N 39°59' W 075°04'1 1.1
2017-Oct-27 18:01N 39°59' W 075°05'1 1.8
2017-Oct-27 17:31N 39°58' W 075°06'4 7.4
2017-Oct-27 17:01N 39°55' W 075°08'1 2.8
2017-Oct-27 16:31N 39°54' W 075°08'0 0.1
2017-Oct-27 16:00N 39°54' W 075°08'3 5.4
2017-Oct-27 15:31N 39°53' W 075°12'4 7.7
2017-Oct-27 15:01N 39°51' W 075°16'4 7.9
2017-Oct-27 14:31N 39°50' W 075°21'3 5.9
2017-Oct-27 14:00N 39°49' W 075°24'0 0.0
2017-Oct-27 13:30N 39°49' W 075°24'0 0.0
2017-Oct-27 13:01N 39°49' W 075°24'0 0.1
2017-Oct-27 12:30N 39°49' W 075°24'0 0.4
2017-Oct-27 12:00N 39°49' W 075°24'0 0.1
2017-Oct-27 11:31N 39°49' W 075°24'0 0.0
2017-Oct-27 11:00N 39°49' W 075°24'0 0.0
2017-Oct-27 10:30N 39°49' W 075°24'0 0.0
2017-Oct-27 10:01N 39°49' W 075°24'0 0.1
2017-Oct-27 09:30N 39°49' W 075°24'0 0.0
2017-Oct-27 09:01N 39°49' W 075°24'0 0.7
2017-Oct-27 08:31N 39°49' W 075°23'4 7.5
2017-Oct-27 08:01N 39°51' W 075°19'4 8.0
2017-Oct-27 07:30N 39°51' W 075°14'3 5.3
2017-Oct-27 07:01N 39°54' W 075°13'1 1.4
2017-Oct-27 06:31N 39°55' W 075°13'0 0.0
2017-Oct-27 06:01N 39°55' W 075°13'0 0.0
2017-Oct-27 05:31N 39°55' W 075°13'0 0.0
2017-Oct-27 05:01N 39°55' W 075°13'1 2.1
2017-Oct-27 04:30N 39°54' W 075°12'0 0.0
2017-Oct-27 04:01N 39°54' W 075°12'0 0.0
2017-Oct-27 03:30N 39°54' W 075°12'0 0.0
2017-Oct-27 03:01N 39°54' W 075°12'0 0.0
2017-Oct-27 02:31N 39°54' W 075°12'0 0.0
2017-Oct-27 02:00N 39°54' W 075°12'0 0.0
2017-Oct-27 01:31N 39°54' W 075°12'0 0.0
2017-Oct-27 01:00N 39°54' W 075°12'0 0.0
2017-Oct-27 00:30N 39°54' W 075°12'0 0.0
2017-Oct-27 00:00N 39°54' W 075°12'1 2.5
2017-Oct-26 23:31N 39°53' W 075°11'2 4.4
2017-Oct-26 23:01N 39°54' W 075°08'1 2.6
2017-Oct-26 22:31N 39°55' W 075°08'3 6.8
2017-Oct-26 22:01N 39°58' W 075°07'2 3.8
2017-Oct-26 21:31N 39°59' W 075°04'2 3.6
2017-Oct-26 21:01N 39°58' W 075°06'5 9.3
2017-Oct-26 20:31N 39°54' W 075°08'3 6.4
2017-Oct-26 19:59N 39°54' W 075°12'0 0.0
2017-Oct-26 19:29N 39°54' W 075°12'0 0.0
2017-Oct-26 18:59N 39°54' W 075°12'0 0.0
2017-Oct-26 18:29N 39°54' W 075°12'0 0.0
2017-Oct-26 17:59N 39°54' W 075°12'0 0.0
2017-Oct-26 17:29N 39°54' W 075°12'0 0.0
2017-Oct-26 16:56N 39°54' W 075°12'0 0.0
2017-Oct-26 16:29N 39°54' W 075°12'0 0.0
2017-Oct-26 15:59N 39°54' W 075°12'0 0.0
2017-Oct-26 15:29N 39°54' W 075°12'0 0.0
2017-Oct-26 14:59N 39°54' W 075°12'0 0.0
2017-Oct-26 14:29N 39°54' W 075°12'0 0.0
2017-Oct-26 13:59N 39°54' W 075°12'0 0.0
2017-Oct-26 13:29N 39°54' W 075°12'0 0.0
2017-Oct-26 12:59N 39°54' W 075°12'0 0.0
2017-Oct-26 12:29N 39°54' W 075°12'0 0.0
2017-Oct-26 11:59N 39°54' W 075°12'0 0.0
2017-Oct-26 11:30N 39°54' W 075°12'0 0.0
2017-Oct-26 11:00N 39°54' W 075°12'3 6.7
2017-Oct-26 10:31N 39°51' W 075°15'0 0.0
2017-Oct-26 10:00N 39°51' W 075°15'2 3.7
2017-Oct-26 09:30N 39°52' W 075°13'2 3.4
2017-Oct-26 09:00N 39°54' W 075°12'0 0.0
2017-Oct-26 08:30N 39°54' W 075°12'0 0.2
2017-Oct-26 08:00N 39°54' W 075°12'0 0.0
2017-Oct-26 07:30N 39°54' W 075°12'0 0.0
2017-Oct-26 07:00N 39°54' W 075°12'0 0.0
2017-Oct-26 06:30N 39°54' W 075°12'0 0.0
2017-Oct-26 06:00N 39°54' W 075°12'0 0.0
2017-Oct-26 05:30N 39°54' W 075°12'0 0.0
2017-Oct-26 05:00N 39°54' W 075°12'0 0.0
2017-Oct-26 04:30N 39°54' W 075°12'0 0.0
2017-Oct-26 04:00N 39°54' W 075°12'0 0.0
2017-Oct-26 03:30N 39°54' W 075°12'0 0.0
2017-Oct-26 03:00N 39°54' W 075°12'0 0.0
2017-Oct-26 02:30N 39°54' W 075°12'0 0.1
2017-Oct-26 02:00N 39°54' W 075°12'0 0.1
2017-Oct-26 01:30N 39°54' W 075°12'0 0.0
2017-Oct-26 01:00N 39°54' W 075°12'0 0.0
2017-Oct-26 00:30N 39°54' W 075°12'0 0.0
2017-Oct-26 00:00N 39°54' W 075°12'0 0.0
2017-Oct-25 23:31N 39°54' W 075°12'0 0.0
2017-Oct-25 23:00N 39°54' W 075°12'0 0.0
2017-Oct-25 22:31N 39°54' W 075°12'0 0.0
2017-Oct-25 22:01N 39°54' W 075°12'0 0.0
2017-Oct-25 21:30N 39°54' W 075°12'0 0.1
2017-Oct-25 21:00N 39°54' W 075°12'1 1.2
2017-Oct-25 20:30N 39°53' W 075°12'3 5.5
2017-Oct-25 20:01N 39°51' W 075°14'3 6.8
2017-Oct-25 19:31N 39°51' W 075°19'611.2
2017-Oct-25 19:01N 39°48' W 075°25'611.2
2017-Oct-25 18:31N 39°44' W 075°30'611.3
2017-Oct-25 18:01N 39°39' W 075°33'5 9.3
2017-Oct-25 17:31N 39°34' W 075°33'0 0.7
2017-Oct-25 17:00N 39°34' W 075°33'0 0.0
2017-Oct-25 16:31N 39°34' W 075°33'0 0.0
2017-Oct-25 16:01N 39°34' W 075°33'0 0.0
2017-Oct-25 15:31N 39°34' W 075°33'0 0.0
2017-Oct-25 15:01N 39°34' W 075°33'0 0.0
2017-Oct-25 14:31N 39°34' W 075°33'0 0.0
2017-Oct-25 14:01N 39°34' W 075°33'0 0.0
2017-Oct-25 13:31N 39°34' W 075°33'0 0.0
2017-Oct-25 13:01N 39°34' W 075°33'0 0.0
2017-Oct-25 12:30N 39°34' W 075°33'0 0.8
2017-Oct-25 12:01N 39°35' W 075°33'3 5.4
2017-Oct-25 11:30N 39°37' W 075°35'4 8.5
2017-Oct-25 11:00N 39°40' W 075°32'4 8.6
2017-Oct-25 10:30N 39°45' W 075°30'4 7.8
2017-Oct-25 10:00N 39°48' W 075°27'4 7.6
2017-Oct-25 09:30N 39°50' W 075°22'3 6.7
2017-Oct-25 09:00N 39°51' W 075°18'3 6.5
2017-Oct-25 08:30N 39°51' W 075°14'3 5.7
2017-Oct-25 08:01N 39°53' W 075°12'0 0.0
2017-Oct-25 07:30N 39°53' W 075°12'0 0.2
2017-Oct-25 07:01N 39°54' W 075°12'0 0.1
2017-Oct-25 06:30N 39°53' W 075°12'0 0.0
2017-Oct-25 06:00N 39°53' W 075°12'0 0.0
2017-Oct-25 05:31N 39°53' W 075°12'0 0.0
2017-Oct-25 05:00N 39°53' W 075°12'0 0.0
2017-Oct-25 04:30N 39°53' W 075°12'0 0.8
2017-Oct-25 04:00N 39°54' W 075°12'1 2.2
2017-Oct-25 03:30N 39°53' W 075°11'2 4.5
2017-Oct-25 03:01N 39°54' W 075°08'1 1.7
2017-Oct-25 02:31N 39°54' W 075°08'0 1.0
2017-Oct-25 02:00N 39°54' W 075°08'0 0.9
2017-Oct-25 01:30N 39°54' W 075°08'0 0.0
2017-Oct-25 01:00N 39°54' W 075°08'0 0.0
2017-Oct-25 00:30N 39°54' W 075°08'0 0.0
2017-Oct-25 00:00N 39°54' W 075°08'0 0.0
2017-Oct-24 23:30N 39°54' W 075°08'0 0.2
2017-Oct-24 23:00N 39°54' W 075°08'0 0.3
2017-Oct-24 22:30N 39°54' W 075°08'0 0.0
2017-Oct-24 22:00N 39°54' W 075°08'0 0.0
2017-Oct-24 21:31N 39°54' W 075°08'0 0.0
2017-Oct-24 21:00N 39°54' W 075°08'0 0.0
2017-Oct-24 20:30N 39°54' W 075°08'0 0.1
2017-Oct-24 20:00N 39°54' W 075°08'0 0.5
2017-Oct-24 19:31N 39°54' W 075°08'1 1.3
2017-Oct-24 19:00N 39°54' W 075°08'0 0.2
2017-Oct-24 18:30N 39°54' W 075°08'4 8.2
2017-Oct-24 18:00N 39°52' W 075°12'5 9.2
2017-Oct-24 17:30N 39°51' W 075°18'5 9.3
2017-Oct-24 17:00N 39°49' W 075°24'4 8.8
2017-Oct-24 16:30N 39°46' W 075°28'4 7.9
2017-Oct-24 16:00N 39°43' W 075°31'0 0.5
2017-Oct-24 15:30N 39°43' W 075°31'0 0.0
2017-Oct-24 15:00N 39°43' W 075°31'0 0.0
2017-Oct-24 14:30N 39°43' W 075°31'0 0.0
2017-Oct-24 14:01N 39°43' W 075°31'0 0.0
2017-Oct-24 13:31N 39°43' W 075°31'0 0.0
2017-Oct-24 13:00N 39°43' W 075°31'0 0.0
2017-Oct-24 12:30N 39°43' W 075°31'0 0.0
2017-Oct-24 12:01N 39°43' W 075°31'1 1.0
2017-Oct-24 11:30N 39°43' W 075°31'3 5.0
2017-Oct-24 11:00N 39°45' W 075°29'4 8.6
2017-Oct-24 10:31N 39°48' W 075°25'4 8.4
2017-Oct-24 10:00N 39°51' W 075°21'4 7.8
2017-Oct-24 09:30N 39°51' W 075°16'4 7.6
2017-Oct-24 09:00N 39°53' W 075°11'3 5.0
2017-Oct-24 08:30N 39°54' W 075°08'0 0.0
2017-Oct-24 08:00N 39°54' W 075°08'0 0.0
2017-Oct-24 07:30N 39°54' W 075°08'0 0.0
2017-Oct-24 07:00N 39°54' W 075°08'0 0.0
2017-Oct-24 06:30N 39°54' W 075°08'0 0.0
2017-Oct-24 06:00N 39°54' W 075°08'0 0.0
2017-Oct-24 05:30N 39°54' W 075°08'0 0.0
2017-Oct-24 05:00N 39°54' W 075°08'0 0.0
2017-Oct-24 04:30N 39°54' W 075°08'0 0.0
2017-Oct-24 04:00N 39°54' W 075°08'0 0.0
2017-Oct-24 03:30N 39°54' W 075°08'0 0.0
2017-Oct-24 03:00N 39°54' W 075°08'0 0.0
2017-Oct-24 02:30N 39°54' W 075°08'0 0.0
2017-Oct-24 02:00N 39°54' W 075°08'2 3.2
2017-Oct-24 01:31N 39°55' W 075°08'5 9.0
2017-Oct-24 01:00N 39°59' W 075°04'1 2.2
2017-Oct-24 00:30N 39°58' W 075°06'4 7.1
2017-Oct-24 00:00N 39°55' W 075°08'2 3.4
2017-Oct-23 23:31N 39°54' W 075°08'0 0.9
2017-Oct-23 23:00N 39°54' W 075°08'3 6.7
2017-Oct-23 22:31N 39°57' W 075°08'3 6.0
2017-Oct-23 22:00N 39°59' W 075°04'0 0.0
2017-Oct-23 21:30N 39°59' W 075°04'0 0.7
2017-Oct-23 21:00N 39°59' W 075°05'0 0.4
2017-Oct-23 20:30N 39°59' W 075°05'0 0.0
2017-Oct-23 20:00N 39°59' W 075°05'0 0.0
2017-Oct-23 19:31N 39°59' W 075°05'1 1.1
2017-Oct-23 19:00N 39°59' W 075°04'3 6.0
2017-Oct-23 18:30N 39°58' W 075°08'4 7.8
2017-Oct-23 18:00N 39°54' W 075°08'0 0.9
2017-Oct-23 17:31N 39°54' W 075°08'0 0.1
2017-Oct-23 17:00N 39°54' W 075°08'0 0.5
2017-Oct-23 16:31N 39°54' W 075°08'0 0.9
2017-Oct-23 16:01N 39°54' W 075°08'2 3.5
2017-Oct-23 15:30N 39°53' W 075°09'2 3.9
2017-Oct-23 15:00N 39°53' W 075°12'2 3.2
2017-Oct-23 14:30N 39°55' W 075°13'0 0.8
2017-Oct-23 14:01N 39°54' W 075°13'3 6.3
2017-Oct-23 13:30N 39°53' W 075°09'1 2.1
2017-Oct-23 13:00N 39°54' W 075°08'0 0.0
2017-Oct-23 12:30N 39°54' W 075°08'0 0.4
2017-Oct-23 12:00N 39°54' W 075°08'0 0.0
2017-Oct-23 11:31N 39°54' W 075°08'0 0.3
2017-Oct-23 11:01N 39°54' W 075°08'0 0.0
2017-Oct-23 10:30N 39°54' W 075°08'0 0.0
2017-Oct-23 10:01N 39°54' W 075°08'0 0.0
2017-Oct-23 09:30N 39°54' W 075°08'0 0.1
2017-Oct-23 09:00N 39°54' W 075°08'0 0.1
2017-Oct-23 08:30N 39°54' W 075°08'0 0.0
2017-Oct-23 08:00N 39°54' W 075°08'0 0.0
2017-Oct-23 07:30N 39°54' W 075°08'0 0.0
2017-Oct-23 07:00N 39°54' W 075°08'0 0.0
2017-Oct-23 06:30N 39°54' W 075°08'0 0.0
2017-Oct-23 06:00N 39°54' W 075°08'0 0.0
2017-Oct-23 05:30N 39°54' W 075°08'3 5.4
2017-Oct-23 05:00N 39°53' W 075°12'2 3.7
2017-Oct-23 04:30N 39°55' W 075°13'0 0.1
2017-Oct-23 04:00N 39°55' W 075°13'0 0.0
2017-Oct-23 03:31N 39°55' W 075°13'0 0.0
2017-Oct-23 03:01N 39°55' W 075°13'1 2.1
2017-Oct-23 02:31N 39°54' W 075°12'0 0.0
2017-Oct-23 02:00N 39°54' W 075°12'0 0.0
2017-Oct-23 01:30N 39°54' W 075°12'0 0.0
2017-Oct-23 01:00N 39°54' W 075°12'0 0.4
2017-Oct-23 00:31N 39°54' W 075°13'1 1.4
2017-Oct-23 00:00N 39°54' W 075°13'1 2.8
2017-Oct-22 23:30N 39°53' W 075°12'0 0.0
2017-Oct-22 23:01N 39°53' W 075°12'0 0.0
2017-Oct-22 22:30N 39°53' W 075°12'0 0.0
2017-Oct-22 22:00N 39°53' W 075°12'0 0.0
2017-Oct-22 21:30N 39°53' W 075°12'0 0.3
2017-Oct-22 21:00N 39°53' W 075°12'2 4.6
2017-Oct-22 20:31N 39°52' W 075°14'4 7.4
2017-Oct-22 20:01N 39°51' W 075°18'4 8.8
2017-Oct-22 19:30N 39°49' W 075°24'0 0.0
2017-Oct-22 19:01N 39°49' W 075°24'2 4.6
2017-Oct-22 18:30N 39°48' W 075°26'5 9.7
2017-Oct-22 18:00N 39°44' W 075°30'1 2.4
2017-Oct-22 17:30N 39°43' W 075°31'2 3.4
2017-Oct-22 17:00N 39°44' W 075°30'3 6.8
2017-Oct-22 16:30N 39°47' W 075°27'4 7.4
2017-Oct-22 16:00N 39°49' W 075°23'3 6.9
2017-Oct-22 15:30N 39°51' W 075°19'4 8.2
2017-Oct-22 15:00N 39°52' W 075°14'0 0.4
2017-Oct-22 14:30N 39°51' W 075°14'5 9.6
2017-Oct-22 14:00N 39°51' W 075°20'4 7.1
2017-Oct-22 13:30N 39°49' W 075°24'0 0.0
2017-Oct-22 13:00N 39°49' W 075°24'0 0.0
2017-Oct-22 12:30N 39°49' W 075°24'0 0.0
2017-Oct-22 12:00N 39°49' W 075°24'0 0.0
2017-Oct-22 11:30N 39°49' W 075°24'0 0.0
2017-Oct-22 11:00N 39°49' W 075°24'0 0.0
2017-Oct-22 10:30N 39°49' W 075°24'0 0.0
2017-Oct-22 10:00N 39°49' W 075°24'0 0.0
2017-Oct-22 09:30N 39°49' W 075°24'0 0.0
2017-Oct-22 09:00N 39°49' W 075°24'0 0.2
2017-Oct-22 08:30N 39°49' W 075°24'0 0.3
2017-Oct-22 08:00N 39°49' W 075°24'0 0.1
2017-Oct-22 07:30N 39°49' W 075°24'0 0.0
2017-Oct-22 07:00N 39°49' W 075°24'1 1.1
2017-Oct-22 06:30N 39°49' W 075°23'2 3.6
2017-Oct-22 06:00N 39°50' W 075°21'3 5.0
2017-Oct-22 05:30N 39°51' W 075°18'3 5.1
2017-Oct-22 05:00N 39°51' W 075°15'2 4.7
2017-Oct-22 04:30N 39°52' W 075°12'2 3.8
2017-Oct-22 04:00N 39°53' W 075°10'1 2.8
2017-Oct-22 03:30N 39°54' W 075°08'0 0.0
2017-Oct-22 03:00N 39°54' W 075°08'0 0.0
2017-Oct-22 02:30N 39°54' W 075°08'  

Dump ship's entire track history